sensor_id;sensor_type;location;lat;lon;timestamp;temperature;humidity
57088;DHT22;42965;52.846;6.614;2023-10-09T00:01:51;14.00;99.90
57088;DHT22;42965;52.846;6.614;2023-10-09T00:04:19;14.00;99.90
57088;DHT22;42965;52.846;6.614;2023-10-09T00:06:46;14.00;99.90
57088;DHT22;42965;52.846;6.614;2023-10-09T00:09:12;14.00;99.90
57088;DHT22;42965;52.846;6.614;2023-10-09T00:12:05;14.00;99.90
57088;DHT22;42965;52.846;6.614;2023-10-09T00:14:36;14.00;99.90
57088;DHT22;42965;52.846;6.614;2023-10-09T00:17:05;14.00;99.90
57088;DHT22;42965;52.846;6.614;2023-10-09T00:19:46;13.90;99.90
57088;DHT22;42965;52.846;6.614;2023-10-09T00:22:18;14.00;99.90
57088;DHT22;42965;52.846;6.614;2023-10-09T00:24:52;14.00;99.90
57088;DHT22;42965;52.846;6.614;2023-10-09T00:27:45;13.90;99.90
57088;DHT22;42965;52.846;6.614;2023-10-09T00:30:14;13.90;99.90
57088;DHT22;42965;52.846;6.614;2023-10-09T00:32:44;13.90;99.90
57088;DHT22;42965;52.846;6.614;2023-10-09T00:35:37;13.90;99.90
57088;DHT22;42965;52.846;6.614;2023-10-09T00:38:09;13.90;99.90
57088;DHT22;42965;52.846;6.614;2023-10-09T00:40:48;13.90;99.90
57088;DHT22;42965;52.846;6.614;2023-10-09T00:43:23;13.90;99.90
57088;DHT22;42965;52.846;6.614;2023-10-09T00:45:54;13.90;99.90
57088;DHT22;42965;52.846;6.614;2023-10-09T00:48:20;13.90;99.90
57088;DHT22;42965;52.846;6.614;2023-10-09T00:51:00;13.90;99.90
57088;DHT22;42965;52.846;6.614;2023-10-09T00:53:29;13.90;99.90
57088;DHT22;42965;52.846;6.614;2023-10-09T00:56:01;13.90;99.90
57088;DHT22;42965;52.846;6.614;2023-10-09T00:58:58;13.90;99.90
57088;DHT22;42965;52.846;6.614;2023-10-09T01:01:35;13.90;99.90
57088;DHT22;42965;52.846;6.614;2023-10-09T01:04:02;13.90;99.90
57088;DHT22;42965;52.846;6.614;2023-10-09T01:06:45;13.90;99.90
57088;DHT22;42965;52.846;6.614;2023-10-09T01:09:30;13.90;99.90
57088;DHT22;42965;52.846;6.614;2023-10-09T01:12:03;13.90;99.90
57088;DHT22;42965;52.846;6.614;2023-10-09T01:14:30;13.80;99.90
57088;DHT22;42965;52.846;6.614;2023-10-09T01:17:03;13.90;99.90
57088;DHT22;42965;52.846;6.614;2023-10-09T01:19:36;13.80;99.90
57088;DHT22;42965;52.846;6.614;2023-10-09T01:22:03;13.80;99.90
57088;DHT22;42965;52.846;6.614;2023-10-09T01:24:42;13.80;99.90
57088;DHT22;42965;52.846;6.614;2023-10-09T01:27:11;13.80;99.90
57088;DHT22;42965;52.846;6.614;2023-10-09T01:29:42;13.80;99.90
57088;DHT22;42965;52.846;6.614;2023-10-09T01:32:08;13.80;99.90
57088;DHT22;42965;52.846;6.614;2023-10-09T01:34:43;13.80;99.90
57088;DHT22;42965;52.846;6.614;2023-10-09T01:37:18;13.80;99.90
57088;DHT22;42965;52.846;6.614;2023-10-09T01:39:58;13.80;99.90
57088;DHT22;42965;52.846;6.614;2023-10-09T01:42:25;13.80;99.90
57088;DHT22;42965;52.846;6.614;2023-10-09T01:45:11;13.70;99.90
57088;DHT22;42965;52.846;6.614;2023-10-09T01:47:58;13.70;99.90
57088;DHT22;42965;52.846;6.614;2023-10-09T01:50:30;13.70;99.90
57088;DHT22;42965;52.846;6.614;2023-10-09T01:53:01;13.70;99.90
57088;DHT22;42965;52.846;6.614;2023-10-09T01:55:30;13.60;99.90
57088;DHT22;42965;52.846;6.614;2023-10-09T01:58:07;13.60;99.90
57088;DHT22;42965;52.846;6.614;2023-10-09T02:00:54;13.70;99.90
57088;DHT22;42965;52.846;6.614;2023-10-09T02:03:23;13.60;99.90
57088;DHT22;42965;52.846;6.614;2023-10-09T02:05:53;13.60;99.90
57088;DHT22;42965;52.846;6.614;2023-10-09T02:08:20;13.60;99.90
57088;DHT22;42965;52.846;6.614;2023-10-09T02:10:53;13.60;99.90
57088;DHT22;42965;52.846;6.614;2023-10-09T02:13:22;13.60;99.90
57088;DHT22;42965;52.846;6.614;2023-10-09T02:16:03;13.60;99.90
57088;DHT22;42965;52.846;6.614;2023-10-09T02:18:39;13.60;99.90
57088;DHT22;42965;52.846;6.614;2023-10-09T02:21:06;13.60;99.90
57088;DHT22;42965;52.846;6.614;2023-10-09T02:23:34;13.60;99.90
57088;DHT22;42965;52.846;6.614;2023-10-09T02:26:17;13.60;99.90
57088;DHT22;42965;52.846;6.614;2023-10-09T02:29:06;13.60;99.90
57088;DHT22;42965;52.846;6.614;2023-10-09T02:31:39;13.60;99.90
57088;DHT22;42965;52.846;6.614;2023-10-09T02:34:13;13.60;99.90
57088;DHT22;42965;52.846;6.614;2023-10-09T02:36:42;13.70;99.90
57088;DHT22;42965;52.846;6.614;2023-10-09T02:39:09;13.70;99.90
57088;DHT22;42965;52.846;6.614;2023-10-09T02:41:53;13.70;99.90
57088;DHT22;42965;52.846;6.614;2023-10-09T02:44:21;13.70;99.90
57088;DHT22;42965;52.846;6.614;2023-10-09T02:46:52;13.70;99.90
57088;DHT22;42965;52.846;6.614;2023-10-09T02:49:23;13.80;99.90
57088;DHT22;42965;52.846;6.614;2023-10-09T02:51:50;13.80;99.90
57088;DHT22;42965;52.846;6.614;2023-10-09T02:54:20;13.80;99.90
57088;DHT22;42965;52.846;6.614;2023-10-09T02:56:51;13.80;99.90
57088;DHT22;42965;52.846;6.614;2023-10-09T02:59:32;13.80;99.90
57088;DHT22;42965;52.846;6.614;2023-10-09T03:01:59;13.80;99.90
57088;DHT22;42965;52.846;6.614;2023-10-09T03:04:28;13.80;99.90
57088;DHT22;42965;52.846;6.614;2023-10-09T03:06:58;13.80;99.90
57088;DHT22;42965;52.846;6.614;2023-10-09T03:09:26;13.80;99.90
57088;DHT22;42965;52.846;6.614;2023-10-09T03:12:02;13.80;99.90
57088;DHT22;42965;52.846;6.614;2023-10-09T03:14:31;13.80;99.90
57088;DHT22;42965;52.846;6.614;2023-10-09T03:16:58;13.80;99.90
57088;DHT22;42965;52.846;6.614;2023-10-09T03:19:29;13.90;99.90
57088;DHT22;42965;52.846;6.614;2023-10-09T03:21:56;13.90;99.90
57088;DHT22;42965;52.846;6.614;2023-10-09T03:24:25;13.90;99.90
57088;DHT22;42965;52.846;6.614;2023-10-09T03:26:53;13.90;99.90
57088;DHT22;42965;52.846;6.614;2023-10-09T03:29:24;13.90;99.90
57088;DHT22;42965;52.846;6.614;2023-10-09T03:31:50;14.00;99.90
57088;DHT22;42965;52.846;6.614;2023-10-09T03:34:17;14.00;99.90
57088;DHT22;42965;52.846;6.614;2023-10-09T03:36:47;14.00;99.90
57088;DHT22;42965;52.846;6.614;2023-10-09T03:39:14;14.00;99.90
57088;DHT22;42965;52.846;6.614;2023-10-09T03:41:59;14.00;99.90
57088;DHT22;42965;52.846;6.614;2023-10-09T03:44:26;14.10;99.90
57088;DHT22;42965;52.846;6.614;2023-10-09T03:46:55;14.10;99.90
57088;DHT22;42965;52.846;6.614;2023-10-09T03:49:22;14.10;99.90
57088;DHT22;42965;52.846;6.614;2023-10-09T03:51:52;14.20;99.90
57088;DHT22;42965;52.846;6.614;2023-10-09T03:54:22;14.20;99.90
57088;DHT22;42965;52.846;6.614;2023-10-09T03:56:49;14.30;99.90
57088;DHT22;42965;52.846;6.614;2023-10-09T03:59:20;14.30;99.90
57088;DHT22;42965;52.846;6.614;2023-10-09T04:01:50;14.40;99.90
57088;DHT22;42965;52.846;6.614;2023-10-09T04:04:19;14.40;99.90
57088;DHT22;42965;52.846;6.614;2023-10-09T04:06:52;14.50;99.90
57088;DHT22;42965;52.846;6.614;2023-10-09T04:09:18;14.60;99.90
57088;DHT22;42965;52.846;6.614;2023-10-09T04:11:55;14.60;99.90
57088;DHT22;42965;52.846;6.614;2023-10-09T04:14:37;14.60;99.90
57088;DHT22;42965;52.846;6.614;2023-10-09T04:17:21;14.60;99.90
57088;DHT22;42965;52.846;6.614;2023-10-09T04:20:01;14.70;99.90
57088;DHT22;42965;52.846;6.614;2023-10-09T04:22:46;14.70;99.90
57088;DHT22;42965;52.846;6.614;2023-10-09T04:25:26;14.70;99.90
57088;DHT22;42965;52.846;6.614;2023-10-09T04:27:58;14.80;99.90
57088;DHT22;42965;52.846;6.614;2023-10-09T04:30:44;14.80;99.90
57088;DHT22;42965;52.846;6.614;2023-10-09T04:33:22;14.80;99.90
57088;DHT22;42965;52.846;6.614;2023-10-09T04:36:04;14.90;99.90
57088;DHT22;42965;52.846;6.614;2023-10-09T04:38:49;14.90;99.90
57088;DHT22;42965;52.846;6.614;2023-10-09T04:41:25;14.90;99.90
57088;DHT22;42965;52.846;6.614;2023-10-09T04:43:55;14.90;99.90
57088;DHT22;42965;52.846;6.614;2023-10-09T04:46:42;14.90;99.90
57088;DHT22;42965;52.846;6.614;2023-10-09T04:49:11;14.90;99.90
57088;DHT22;42965;52.846;6.614;2023-10-09T04:52:03;14.90;99.90
57088;DHT22;42965;52.846;6.614;2023-10-09T04:54:44;14.90;99.90
57088;DHT22;42965;52.846;6.614;2023-10-09T04:57:28;14.90;99.90
57088;DHT22;42965;52.846;6.614;2023-10-09T04:59:55;14.90;99.90
57088;DHT22;42965;52.846;6.614;2023-10-09T05:02:24;14.90;99.90
57088;DHT22;42965;52.846;6.614;2023-10-09T05:04:51;15.00;99.90
57088;DHT22;42965;52.846;6.614;2023-10-09T05:07:37;14.90;99.90
57088;DHT22;42965;52.846;6.614;2023-10-09T05:10:21;15.00;99.90
57088;DHT22;42965;52.846;6.614;2023-10-09T05:12:51;15.00;99.90
57088;DHT22;42965;52.846;6.614;2023-10-09T05:15:24;15.00;99.90
57088;DHT22;42965;52.846;6.614;2023-10-09T05:17:56;15.00;99.90
57088;DHT22;42965;52.846;6.614;2023-10-09T05:20:23;15.00;99.90
57088;DHT22;42965;52.846;6.614;2023-10-09T05:22:52;15.00;99.90
57088;DHT22;42965;52.846;6.614;2023-10-09T05:25:26;15.00;99.90
57088;DHT22;42965;52.846;6.614;2023-10-09T05:28:11;15.00;99.90
57088;DHT22;42965;52.846;6.614;2023-10-09T05:31:00;15.00;99.90
57088;DHT22;42965;52.846;6.614;2023-10-09T05:33:36;15.10;99.90
57088;DHT22;42965;52.846;6.614;2023-10-09T05:36:06;15.10;99.90
57088;DHT22;42965;52.846;6.614;2023-10-09T05:38:47;15.20;99.90
57088;DHT22;42965;52.846;6.614;2023-10-09T05:41:25;15.20;99.90
57088;DHT22;42965;52.846;6.614;2023-10-09T05:44:12;15.20;99.90
57088;DHT22;42965;52.846;6.614;2023-10-09T05:46:57;15.30;99.90
57088;DHT22;42965;52.846;6.614;2023-10-09T05:49:41;15.30;99.90
57088;DHT22;42965;52.846;6.614;2023-10-09T05:52:39;15.30;99.90
57088;DHT22;42965;52.846;6.614;2023-10-09T05:55:06;15.50;99.90
57088;DHT22;42965;52.846;6.614;2023-10-09T05:57:45;15.50;99.90
57088;DHT22;42965;52.846;6.614;2023-10-09T06:00:22;15.60;99.90
57088;DHT22;42965;52.846;6.614;2023-10-09T06:03:06;15.60;99.90
57088;DHT22;42965;52.846;6.614;2023-10-09T06:05:49;15.70;99.90
57088;DHT22;42965;52.846;6.614;2023-10-09T06:08:36;15.70;99.90
57088;DHT22;42965;52.846;6.614;2023-10-09T06:11:10;15.70;99.90
57088;DHT22;42965;52.846;6.614;2023-10-09T06:13:57;15.70;99.90
57088;DHT22;42965;52.846;6.614;2023-10-09T06:16:30;15.70;99.90
57088;DHT22;42965;52.846;6.614;2023-10-09T06:19:14;15.80;99.90
57088;DHT22;42965;52.846;6.614;2023-10-09T06:21:47;15.70;99.90
57088;DHT22;42965;52.846;6.614;2023-10-09T06:24:23;15.70;99.90
57088;DHT22;42965;52.846;6.614;2023-10-09T06:26:50;15.80;99.90
57088;DHT22;42965;52.846;6.614;2023-10-09T06:29:30;15.80;99.90
57088;DHT22;42965;52.846;6.614;2023-10-09T06:32:18;15.80;99.90
57088;DHT22;42965;52.846;6.614;2023-10-09T06:35:07;15.90;99.90
57088;DHT22;42965;52.846;6.614;2023-10-09T06:37:51;16.00;99.90
57088;DHT22;42965;52.846;6.614;2023-10-09T06:40:34;16.00;99.90
57088;DHT22;42965;52.846;6.614;2023-10-09T06:43:20;16.00;99.90
57088;DHT22;42965;52.846;6.614;2023-10-09T06:45:54;16.10;99.90
57088;DHT22;42965;52.846;6.614;2023-10-09T06:48:24;16.10;99.90
57088;DHT22;42965;52.846;6.614;2023-10-09T06:51:03;16.10;99.90
57088;DHT22;42965;52.846;6.614;2023-10-09T06:53:34;16.10;99.90
57088;DHT22;42965;52.846;6.614;2023-10-09T06:56:22;16.10;99.90
57088;DHT22;42965;52.846;6.614;2023-10-09T06:59:09;16.10;99.90
57088;DHT22;42965;52.846;6.614;2023-10-09T07:01:50;16.10;99.90
57088;DHT22;42965;52.846;6.614;2023-10-09T07:04:35;16.20;99.90
57088;DHT22;42965;52.846;6.614;2023-10-09T07:07:02;16.20;99.90
57088;DHT22;42965;52.846;6.614;2023-10-09T07:09:33;16.20;99.90
57088;DHT22;42965;52.846;6.614;2023-10-09T07:12:10;16.20;99.90
57088;DHT22;42965;52.846;6.614;2023-10-09T07:14:40;16.20;99.90
57088;DHT22;42965;52.846;6.614;2023-10-09T07:17:08;16.20;99.90
57088;DHT22;42965;52.846;6.614;2023-10-09T07:20:13;16.30;99.90
57088;DHT22;42965;52.846;6.614;2023-10-09T07:22:40;16.30;99.90
57088;DHT22;42965;52.846;6.614;2023-10-09T07:25:20;16.30;99.90
57088;DHT22;42965;52.846;6.614;2023-10-09T07:28:05;16.30;99.90
57088;DHT22;42965;52.846;6.614;2023-10-09T07:30:47;16.30;99.90
57088;DHT22;42965;52.846;6.614;2023-10-09T07:33:14;16.30;99.90
57088;DHT22;42965;52.846;6.614;2023-10-09T07:35:43;16.40;99.90
57088;DHT22;42965;52.846;6.614;2023-10-09T07:38:15;16.40;99.90
57088;DHT22;42965;52.846;6.614;2023-10-09T07:40:46;16.40;99.90
57088;DHT22;42965;52.846;6.614;2023-10-09T07:43:36;16.40;99.90
57088;DHT22;42965;52.846;6.614;2023-10-09T07:46:06;16.40;99.90
57088;DHT22;42965;52.846;6.614;2023-10-09T07:48:51;16.40;99.90
57088;DHT22;42965;52.846;6.614;2023-10-09T07:51:21;16.40;99.90
57088;DHT22;42965;52.846;6.614;2023-10-09T07:53:52;16.40;99.90
57088;DHT22;42965;52.846;6.614;2023-10-09T07:56:45;16.40;99.90
57088;DHT22;42965;52.846;6.614;2023-10-09T07:59:13;16.40;99.90
57088;DHT22;42965;52.846;6.614;2023-10-09T08:01:44;16.40;99.90
57088;DHT22;42965;52.846;6.614;2023-10-09T08:04:29;16.40;99.90
57088;DHT22;42965;52.846;6.614;2023-10-09T08:07:15;16.50;99.90
57088;DHT22;42965;52.846;6.614;2023-10-09T08:10:07;16.50;99.90
57088;DHT22;42965;52.846;6.614;2023-10-09T08:12:40;16.50;99.90
57088;DHT22;42965;52.846;6.614;2023-10-09T08:15:14;16.60;99.90
57088;DHT22;42965;52.846;6.614;2023-10-09T08:17:57;16.60;99.90
57088;DHT22;42965;52.846;6.614;2023-10-09T08:20:30;16.70;99.90
57088;DHT22;42965;52.846;6.614;2023-10-09T08:23:17;16.70;99.90
57088;DHT22;42965;52.846;6.614;2023-10-09T08:26:00;16.70;99.90
57088;DHT22;42965;52.846;6.614;2023-10-09T08:28:39;16.70;99.90
57088;DHT22;42965;52.846;6.614;2023-10-09T08:31:16;16.70;99.90
57088;DHT22;42965;52.846;6.614;2023-10-09T08:34:01;16.70;99.90
57088;DHT22;42965;52.846;6.614;2023-10-09T08:36:28;16.70;99.90
57088;DHT22;42965;52.846;6.614;2023-10-09T08:38:55;16.70;99.90
57088;DHT22;42965;52.846;6.614;2023-10-09T08:41:27;16.70;99.90
57088;DHT22;42965;52.846;6.614;2023-10-09T08:43:57;16.70;99.90
57088;DHT22;42965;52.846;6.614;2023-10-09T08:46:28;16.70;99.90
57088;DHT22;42965;52.846;6.614;2023-10-09T08:48:56;16.70;99.90
57088;DHT22;42965;52.846;6.614;2023-10-09T08:51:24;16.70;99.90
57088;DHT22;42965;52.846;6.614;2023-10-09T08:53:52;16.70;99.90
57088;DHT22;42965;52.846;6.614;2023-10-09T08:56:20;16.70;99.90
57088;DHT22;42965;52.846;6.614;2023-10-09T08:58:57;16.70;99.90
57088;DHT22;42965;52.846;6.614;2023-10-09T09:01:23;16.70;99.90
57088;DHT22;42965;52.846;6.614;2023-10-09T09:03:52;16.70;99.90
57088;DHT22;42965;52.846;6.614;2023-10-09T09:06:21;16.70;99.90
57088;DHT22;42965;52.846;6.614;2023-10-09T09:08:51;16.80;99.90
57088;DHT22;42965;52.846;6.614;2023-10-09T09:11:25;16.70;99.90
57088;DHT22;42965;52.846;6.614;2023-10-09T09:16:34;16.80;99.90
57088;DHT22;42965;52.846;6.614;2023-10-09T09:19:07;16.80;99.90
57088;DHT22;42965;52.846;6.614;2023-10-09T09:21:41;16.80;99.90
57088;DHT22;42965;52.846;6.614;2023-10-09T09:24:10;16.80;99.90
57088;DHT22;42965;52.846;6.614;2023-10-09T09:27:05;16.70;99.90
57088;DHT22;42965;52.846;6.614;2023-10-09T09:29:47;16.70;99.90
57088;DHT22;42965;52.846;6.614;2023-10-09T09:32:30;16.70;99.90
57088;DHT22;42965;52.846;6.614;2023-10-09T09:35:12;16.70;99.90
57088;DHT22;42965;52.846;6.614;2023-10-09T09:37:52;16.60;99.90
57088;DHT22;42965;52.846;6.614;2023-10-09T09:40:19;16.70;99.90
57088;DHT22;42965;52.846;6.614;2023-10-09T09:43:01;16.70;99.90
57088;DHT22;42965;52.846;6.614;2023-10-09T09:45:35;16.70;99.90
57088;DHT22;42965;52.846;6.614;2023-10-09T09:48:05;16.70;99.90
57088;DHT22;42965;52.846;6.614;2023-10-09T09:50:35;16.80;99.90
57088;DHT22;42965;52.846;6.614;2023-10-09T09:53:11;16.90;99.90
57088;DHT22;42965;52.846;6.614;2023-10-09T09:55:52;16.90;99.90
57088;DHT22;42965;52.846;6.614;2023-10-09T09:58:27;16.90;99.90
57088;DHT22;42965;52.846;6.614;2023-10-09T10:01:10;17.00;99.90
57088;DHT22;42965;52.846;6.614;2023-10-09T10:03:47;16.90;99.90
57088;DHT22;42965;52.846;6.614;2023-10-09T10:06:19;17.00;99.90
57088;DHT22;42965;52.846;6.614;2023-10-09T10:08:47;17.00;99.90
57088;DHT22;42965;52.846;6.614;2023-10-09T10:11:42;17.00;99.90
57088;DHT22;42965;52.846;6.614;2023-10-09T10:14:11;17.20;99.90
57088;DHT22;42965;52.846;6.614;2023-10-09T10:20:05;17.50;99.90
57088;DHT22;42965;52.846;6.614;2023-10-09T10:23:17;17.60;99.90
57088;DHT22;42965;52.846;6.614;2023-10-09T10:25:45;17.70;99.90
57088;DHT22;42965;52.846;6.614;2023-10-09T10:28:26;17.70;99.90
57088;DHT22;42965;52.846;6.614;2023-10-09T10:31:08;17.80;99.90
57088;DHT22;42965;52.846;6.614;2023-10-09T10:36:25;17.80;99.90
57088;DHT22;42965;52.846;6.614;2023-10-09T10:39:02;17.70;99.90
57088;DHT22;42965;52.846;6.614;2023-10-09T10:41:36;17.70;99.90
57088;DHT22;42965;52.846;6.614;2023-10-09T10:44:30;17.70;99.90
57088;DHT22;42965;52.846;6.614;2023-10-09T10:47:00;17.70;99.90
57088;DHT22;42965;52.846;6.614;2023-10-09T10:49:28;17.70;99.90
57088;DHT22;42965;52.846;6.614;2023-10-09T10:52:03;17.70;99.90
57088;DHT22;42965;52.846;6.614;2023-10-09T10:54:44;17.70;99.90
57088;DHT22;42965;52.846;6.614;2023-10-09T10:57:17;17.70;99.90
57088;DHT22;42965;52.846;6.614;2023-10-09T10:59:57;17.70;99.90
57088;DHT22;42965;52.846;6.614;2023-10-09T11:02:44;17.80;99.90
57088;DHT22;42965;52.846;6.614;2023-10-09T11:05:13;17.80;99.90
57088;DHT22;42965;52.846;6.614;2023-10-09T11:07:40;17.80;99.90
57088;DHT22;42965;52.846;6.614;2023-10-09T11:10:07;17.80;99.90
57088;DHT22;42965;52.846;6.614;2023-10-09T11:15:09;17.90;99.90
57088;DHT22;42965;52.846;6.614;2023-10-09T11:18:08;17.90;99.90
57088;DHT22;42965;52.846;6.614;2023-10-09T11:20:35;17.80;99.90
57088;DHT22;42965;52.846;6.614;2023-10-09T11:23:06;17.80;99.90
57088;DHT22;42965;52.846;6.614;2023-10-09T11:25:41;17.80;99.90
57088;DHT22;42965;52.846;6.614;2023-10-09T11:28:23;17.80;99.90
57088;DHT22;42965;52.846;6.614;2023-10-09T11:31:11;17.80;99.90
57088;DHT22;42965;52.846;6.614;2023-10-09T11:33:45;17.90;99.90
57088;DHT22;42965;52.846;6.614;2023-10-09T11:36:11;18.00;99.90
57088;DHT22;42965;52.846;6.614;2023-10-09T11:38:38;18.10;99.90
57088;DHT22;42965;52.846;6.614;2023-10-09T11:41:15;18.20;99.90
57088;DHT22;42965;52.846;6.614;2023-10-09T11:44:04;18.20;99.90
57088;DHT22;42965;52.846;6.614;2023-10-09T11:46:31;18.30;99.90
57088;DHT22;42965;52.846;6.614;2023-10-09T11:49:08;18.40;99.90
57088;DHT22;42965;52.846;6.614;2023-10-09T11:51:43;18.50;99.90
57088;DHT22;42965;52.846;6.614;2023-10-09T11:54:31;18.70;99.90
57088;DHT22;42965;52.846;6.614;2023-10-09T11:56:57;18.60;99.90
57088;DHT22;42965;52.846;6.614;2023-10-09T11:59:30;18.50;99.90
57088;DHT22;42965;52.846;6.614;2023-10-09T12:02:08;18.50;99.90
57088;DHT22;42965;52.846;6.614;2023-10-09T12:04:41;18.40;99.90
57088;DHT22;42965;52.846;6.614;2023-10-09T12:07:08;18.30;99.90
57088;DHT22;42965;52.846;6.614;2023-10-09T12:09:39;18.30;99.90
57088;DHT22;42965;52.846;6.614;2023-10-09T12:12:07;18.30;99.90
57088;DHT22;42965;52.846;6.614;2023-10-09T12:14:35;18.20;99.90
57088;DHT22;42965;52.846;6.614;2023-10-09T12:17:07;18.20;99.90
57088;DHT22;42965;52.846;6.614;2023-10-09T12:19:35;18.10;99.90
57088;DHT22;42965;52.846;6.614;2023-10-09T12:22:02;18.10;99.90
57088;DHT22;42965;52.846;6.614;2023-10-09T12:24:31;18.10;99.90
57088;DHT22;42965;52.846;6.614;2023-10-09T12:26:57;18.10;99.90
57088;DHT22;42965;52.846;6.614;2023-10-09T12:29:24;18.20;99.90
57088;DHT22;42965;52.846;6.614;2023-10-09T12:31:50;18.30;99.90
57088;DHT22;42965;52.846;6.614;2023-10-09T12:34:32;18.40;99.90
57088;DHT22;42965;52.846;6.614;2023-10-09T12:36:59;18.70;99.90
57088;DHT22;42965;52.846;6.614;2023-10-09T12:39:28;19.40;99.90
57088;DHT22;42965;52.846;6.614;2023-10-09T12:42:02;20.30;99.90
57088;DHT22;42965;52.846;6.614;2023-10-09T12:44:33;21.40;99.90
57088;DHT22;42965;52.846;6.614;2023-10-09T12:47:06;22.10;99.90
57088;DHT22;42965;52.846;6.614;2023-10-09T12:49:33;22.70;99.90
57088;DHT22;42965;52.846;6.614;2023-10-09T12:51:59;22.40;99.90
57088;DHT22;42965;52.846;6.614;2023-10-09T12:54:25;22.20;99.90
57088;DHT22;42965;52.846;6.614;2023-10-09T12:56:56;21.50;99.90
57088;DHT22;42965;52.846;6.614;2023-10-09T12:59:25;21.20;99.90
57088;DHT22;42965;52.846;6.614;2023-10-09T13:05:12;20.30;99.90
57088;DHT22;42965;52.846;6.614;2023-10-09T13:07:52;20.20;99.90
57088;DHT22;42965;52.846;6.614;2023-10-09T13:10:19;19.90;99.90
57088;DHT22;42965;52.846;6.614;2023-10-09T13:12:46;19.80;99.90
57088;DHT22;42965;52.846;6.614;2023-10-09T13:15:21;19.80;99.90
57088;DHT22;42965;52.846;6.614;2023-10-09T13:17:47;19.70;99.90
57088;DHT22;42965;52.846;6.614;2023-10-09T13:20:14;19.60;99.90
57088;DHT22;42965;52.846;6.614;2023-10-09T13:22:44;19.60;99.90
57088;DHT22;42965;52.846;6.614;2023-10-09T13:25:12;19.40;99.90
57088;DHT22;42965;52.846;6.614;2023-10-09T13:27:51;19.30;99.90
57088;DHT22;42965;52.846;6.614;2023-10-09T13:30:18;19.20;99.90
57088;DHT22;42965;52.846;6.614;2023-10-09T13:32:51;19.10;99.90
57088;DHT22;42965;52.846;6.614;2023-10-09T13:35:17;19.10;99.90
57088;DHT22;42965;52.846;6.614;2023-10-09T13:37:45;19.10;99.90
57088;DHT22;42965;52.846;6.614;2023-10-09T13:40:21;19.10;99.90
57088;DHT22;42965;52.846;6.614;2023-10-09T13:42:57;19.10;99.90
57088;DHT22;42965;52.846;6.614;2023-10-09T13:45:28;19.10;99.90
57088;DHT22;42965;52.846;6.614;2023-10-09T13:47:55;19.20;99.90
57088;DHT22;42965;52.846;6.614;2023-10-09T13:50:25;19.10;99.90
57088;DHT22;42965;52.846;6.614;2023-10-09T13:52:58;19.10;99.90
57088;DHT22;42965;52.846;6.614;2023-10-09T13:55:24;19.00;99.90
57088;DHT22;42965;52.846;6.614;2023-10-09T13:57:58;19.20;99.90
57088;DHT22;42965;52.846;6.614;2023-10-09T14:00:24;19.30;99.90
57088;DHT22;42965;52.846;6.614;2023-10-09T14:03:03;19.40;99.90
57088;DHT22;42965;52.846;6.614;2023-10-09T14:05:46;19.30;99.90
57088;DHT22;42965;52.846;6.614;2023-10-09T14:08:20;19.20;99.90
57088;DHT22;42965;52.846;6.614;2023-10-09T14:10:52;19.10;99.90
57088;DHT22;42965;52.846;6.614;2023-10-09T14:13:18;19.00;99.90
57088;DHT22;42965;52.846;6.614;2023-10-09T14:15:52;18.80;99.90
57088;DHT22;42965;52.846;6.614;2023-10-09T14:18:21;18.70;99.90
57088;DHT22;42965;52.846;6.614;2023-10-09T14:20:48;18.70;99.90
57088;DHT22;42965;52.846;6.614;2023-10-09T14:23:16;18.60;99.90
57088;DHT22;42965;52.846;6.614;2023-10-09T14:25:46;18.60;99.90
57088;DHT22;42965;52.846;6.614;2023-10-09T14:28:16;18.50;99.90
57088;DHT22;42965;52.846;6.614;2023-10-09T14:30:45;18.60;99.90
57088;DHT22;42965;52.846;6.614;2023-10-09T14:33:16;18.50;99.90
57088;DHT22;42965;52.846;6.614;2023-10-09T14:35:54;18.50;99.90
57088;DHT22;42965;52.846;6.614;2023-10-09T14:38:21;18.60;99.90
57088;DHT22;42965;52.846;6.614;2023-10-09T14:40:56;18.50;99.90
57088;DHT22;42965;52.846;6.614;2023-10-09T14:43:26;18.50;99.90
57088;DHT22;42965;52.846;6.614;2023-10-09T14:45:59;18.50;99.90
57088;DHT22;42965;52.846;6.614;2023-10-09T14:48:25;18.40;99.90
57088;DHT22;42965;52.846;6.614;2023-10-09T14:50:55;18.30;99.90
57088;DHT22;42965;52.846;6.614;2023-10-09T14:53:30;18.30;99.90
57088;DHT22;42965;52.846;6.614;2023-10-09T14:55:57;18.30;99.90
57088;DHT22;42965;52.846;6.614;2023-10-09T14:58:25;18.40;99.90
57088;DHT22;42965;52.846;6.614;2023-10-09T15:00:52;18.30;99.90
57088;DHT22;42965;52.846;6.614;2023-10-09T15:03:19;18.30;99.90
57088;DHT22;42965;52.846;6.614;2023-10-09T15:05:46;18.30;99.90
57088;DHT22;42965;52.846;6.614;2023-10-09T15:08:12;18.20;99.90
57088;DHT22;42965;52.846;6.614;2023-10-09T15:10:50;18.20;99.90
57088;DHT22;42965;52.846;6.614;2023-10-09T15:13:22;18.10;99.90
57088;DHT22;42965;52.846;6.614;2023-10-09T15:15:54;18.10;99.90
57088;DHT22;42965;52.846;6.614;2023-10-09T15:18:22;18.00;99.90
57088;DHT22;42965;52.846;6.614;2023-10-09T15:20:49;17.90;99.90
57088;DHT22;42965;52.846;6.614;2023-10-09T15:23:18;17.90;99.90
57088;DHT22;42965;52.846;6.614;2023-10-09T15:25:46;17.80;99.90
57088;DHT22;42965;52.846;6.614;2023-10-09T15:28:21;17.80;99.90
57088;DHT22;42965;52.846;6.614;2023-10-09T15:30:48;17.80;99.90
57088;DHT22;42965;52.846;6.614;2023-10-09T15:33:15;17.80;99.90
57088;DHT22;42965;52.846;6.614;2023-10-09T15:35:46;17.70;99.90
57088;DHT22;42965;52.846;6.614;2023-10-09T15:38:12;17.70;99.90
57088;DHT22;42965;52.846;6.614;2023-10-09T15:40:40;17.70;99.90
57088;DHT22;42965;52.846;6.614;2023-10-09T15:43:10;17.70;99.90
57088;DHT22;42965;52.846;6.614;2023-10-09T15:45:43;17.70;99.90
57088;DHT22;42965;52.846;6.614;2023-10-09T15:48:16;17.70;99.90
57088;DHT22;42965;52.846;6.614;2023-10-09T15:50:45;17.60;99.90
57088;DHT22;42965;52.846;6.614;2023-10-09T15:53:15;17.70;99.90
57088;DHT22;42965;52.846;6.614;2023-10-09T15:55:45;17.60;99.90
57088;DHT22;42965;52.846;6.614;2023-10-09T15:58:11;17.60;99.90
57088;DHT22;42965;52.846;6.614;2023-10-09T16:00:38;17.60;99.90
57088;DHT22;42965;52.846;6.614;2023-10-09T16:03:05;17.60;99.90
57088;DHT22;42965;52.846;6.614;2023-10-09T16:05:36;17.50;99.90
57088;DHT22;42965;52.846;6.614;2023-10-09T16:08:02;17.50;99.90
57088;DHT22;42965;52.846;6.614;2023-10-09T16:10:32;17.50;99.90
57088;DHT22;42965;52.846;6.614;2023-10-09T16:13:00;17.50;99.90
57088;DHT22;42965;52.846;6.614;2023-10-09T16:15:27;17.40;99.90
57088;DHT22;42965;52.846;6.614;2023-10-09T16:17:54;17.40;99.90
57088;DHT22;42965;52.846;6.614;2023-10-09T16:20:29;17.40;99.90
57088;DHT22;42965;52.846;6.614;2023-10-09T16:22:58;17.40;99.90
57088;DHT22;42965;52.846;6.614;2023-10-09T16:25:25;17.30;99.90
57088;DHT22;42965;52.846;6.614;2023-10-09T16:27:53;17.30;99.90